createdAt,value
2019-01-22T21:09:14.764Z,86.87
2019-01-22T21:11:44.660Z,86.97
2019-01-22T21:14:14.466Z,86.92
2019-01-22T21:16:44.464Z,87.09
2019-01-22T21:19:14.255Z,87.07
2019-01-22T21:21:43.909Z,87.08
2019-01-22T21:24:13.757Z,87.22
2019-01-22T21:26:43.413Z,87.21
2019-01-22T21:29:13.505Z,87.09
2019-01-22T21:31:43.442Z,87.24
2019-01-22T21:34:13.293Z,87.12
2019-01-22T21:36:43.116Z,87.46
2019-01-22T21:39:13.487Z,87.51
2019-01-22T21:41:43.316Z,87.66
2019-01-22T21:44:13.063Z,87.67
2019-01-22T21:46:43.090Z,87.69
2019-01-22T21:49:12.968Z,87.90
2019-01-22T21:51:42.310Z,88.26
2019-01-22T21:54:12.183Z,88.28
2019-01-22T21:56:41.901Z,88.36
2019-01-22T21:59:11.577Z,88.70
2019-01-22T22:01:41.532Z,88.73
2019-01-22T22:04:11.284Z,88.96
2019-01-22T22:06:41.020Z,89.30
2019-01-22T22:09:10.640Z,89.18
2019-01-22T22:11:41.000Z,89.08
2019-01-22T22:14:10.722Z,89.09
2019-01-22T22:16:40.429Z,89.06
2019-01-22T22:19:09.994Z,89.43
2019-01-22T22:21:39.563Z,89.34
2019-01-22T22:24:09.529Z,89.06
2019-01-22T22:26:39.122Z,88.84
2019-01-22T22:29:08.846Z,88.30
2019-01-22T22:31:38.747Z,88.13
2019-01-22T22:34:09.091Z,87.97
2019-01-22T22:36:38.751Z,87.77
2019-01-22T22:39:09.114Z,87.70
2019-01-22T22:41:38.920Z,87.66
2019-01-22T22:44:08.706Z,87.59
2019-01-22T22:46:38.596Z,87.42
2019-01-22T22:49:08.516Z,87.18
2019-01-22T22:51:37.857Z,87.01
2019-01-22T22:54:07.747Z,87.01
2019-01-22T22:56:37.504Z,87.05
2019-01-22T22:59:07.190Z,87.12
2019-01-22T23:01:37.445Z,87.18
2019-01-22T23:04:07.153Z,87.14
2019-01-22T23:06:36.854Z,87.05
2019-01-22T23:09:09.368Z,86.88
2019-01-22T23:11:39.163Z,86.20
2019-01-22T23:14:11.023Z,84.92
2019-01-22T23:16:40.949Z,84.69
2019-01-22T23:19:10.768Z,84.55
2019-01-22T23:21:40.501Z,84.41
2019-01-22T23:24:10.277Z,84.46
2019-01-22T23:26:39.931Z,84.56
2019-01-22T23:29:24.752Z,84.26
2019-01-22T23:31:54.605Z,84.17
2019-01-22T23:34:24.346Z,83.57
2019-01-22T23:36:54.182Z,82.73
2019-01-22T23:39:23.837Z,82.58
2019-01-22T23:41:53.587Z,82.13
2019-01-22T23:44:23.337Z,81.98
2019-01-22T23:46:53.088Z,81.82
2019-01-22T23:49:22.849Z,81.22
2019-01-22T23:51:53.150Z,80.92
2019-01-22T23:54:22.888Z,80.90
2019-01-22T23:56:53.075Z,81.08
2019-01-22T23:59:22.854Z,80.96
